EDDL/DUS METAR and TAF weather

Enter ICAO airport designator
Station Type Date Time Source
EDDL METAR 2021/07/30 06:50 UTC NOAA

EDDL 300650Z 15007KT CAVOK 18/12 Q1010 NOSIG


Station Type Date Time Source
EDDL Decoded METAR 2021/07/30 06:50 UTC NOAA

Duesseldorf, Germany (EDDL) 51-18N 006-46E 41M
Jul 30, 2021 - 02:50 AM EDT / 2021.07.30 0650 UTC
Wind: from the SSE (150 degrees) at 8 MPH (7 KT):0
Visibility: greater than 7 mile(s):0
Temperature: 64 F (18 C)
Dew Point: 53 F (12 C)
Relative Humidity: 67%
Pressure (altimeter): 29.83 in. Hg (1010 hPa)
ob: EDDL 300650Z 15007KT CAVOK 18/12 Q1010 NOSIG
cycle: 7

Station Type Date Time Source
EDDL TAF 2021/07/30 06:27 UTC NOAA

TAF EDDL 300500Z 3006/3112 18006KT CAVOK
BECMG 3006/3009 21012KT
BECMG 3103/3106 23015G25KT

Example: see airport list